sensor_id;sensor_type;location;lat;lon;timestamp;temperature;humidity
14585;DHT22;7379;51.506;11.876;2023-09-08T00:00:43;21.70;64.20
14585;DHT22;7379;51.506;11.876;2023-09-08T00:03:10;21.70;64.20
14585;DHT22;7379;51.506;11.876;2023-09-08T00:05:37;21.70;64.30
14585;DHT22;7379;51.506;11.876;2023-09-08T00:08:04;21.70;64.30
14585;DHT22;7379;51.506;11.876;2023-09-08T00:10:31;21.70;64.30
14585;DHT22;7379;51.506;11.876;2023-09-08T00:12:59;21.70;64.40
14585;DHT22;7379;51.506;11.876;2023-09-08T00:15:25;21.70;64.40
14585;DHT22;7379;51.506;11.876;2023-09-08T00:17:52;21.60;64.40
14585;DHT22;7379;51.506;11.876;2023-09-08T00:20:19;21.60;64.50
14585;DHT22;7379;51.506;11.876;2023-09-08T00:22:45;21.60;64.50
14585;DHT22;7379;51.506;11.876;2023-09-08T00:25:12;21.60;64.60
14585;DHT22;7379;51.506;11.876;2023-09-08T00:27:39;21.60;64.60
14585;DHT22;7379;51.506;11.876;2023-09-08T00:30:08;21.60;64.60
14585;DHT22;7379;51.506;11.876;2023-09-08T00:32:35;21.50;64.60
14585;DHT22;7379;51.506;11.876;2023-09-08T00:35:02;21.50;64.60
14585;DHT22;7379;51.506;11.876;2023-09-08T00:37:29;21.50;64.70
14585;DHT22;7379;51.506;11.876;2023-09-08T00:39:55;21.50;64.70
14585;DHT22;7379;51.506;11.876;2023-09-08T00:42:22;21.50;64.80
14585;DHT22;7379;51.506;11.876;2023-09-08T00:44:49;21.50;64.80
14585;DHT22;7379;51.506;11.876;2023-09-08T00:47:17;21.40;64.80
14585;DHT22;7379;51.506;11.876;2023-09-08T00:49:44;21.40;64.80
14585;DHT22;7379;51.506;11.876;2023-09-08T00:52:11;21.40;64.80
14585;DHT22;7379;51.506;11.876;2023-09-08T00:54:38;21.40;64.90
14585;DHT22;7379;51.506;11.876;2023-09-08T00:57:06;21.40;64.90
14585;DHT22;7379;51.506;11.876;2023-09-08T00:59:33;21.40;65.00
14585;DHT22;7379;51.506;11.876;2023-09-08T01:02:02;21.30;64.90
14585;DHT22;7379;51.506;11.876;2023-09-08T01:04:30;21.30;65.00
14585;DHT22;7379;51.506;11.876;2023-09-08T01:06:58;21.30;65.00
14585;DHT22;7379;51.506;11.876;2023-09-08T01:09:26;21.30;65.00
14585;DHT22;7379;51.506;11.876;2023-09-08T01:11:53;21.30;65.10
14585;DHT22;7379;51.506;11.876;2023-09-08T01:14:20;21.30;65.10
14585;DHT22;7379;51.506;11.876;2023-09-08T01:16:47;21.20;65.00
14585;DHT22;7379;51.506;11.876;2023-09-08T01:19:16;21.20;65.10
14585;DHT22;7379;51.506;11.876;2023-09-08T01:22:14;21.20;65.10
14585;DHT22;7379;51.506;11.876;2023-09-08T01:27:43;21.20;65.20
14585;DHT22;7379;51.506;11.876;2023-09-08T01:30:13;21.10;65.10
14585;DHT22;7379;51.506;11.876;2023-09-08T01:32:40;21.10;65.20
14585;DHT22;7379;51.506;11.876;2023-09-08T01:35:08;21.10;65.20
14585;DHT22;7379;51.506;11.876;2023-09-08T01:37:35;21.10;65.30
14585;DHT22;7379;51.506;11.876;2023-09-08T01:40:05;21.10;65.30
14585;DHT22;7379;51.506;11.876;2023-09-08T01:42:31;21.10;66.10
14585;DHT22;7379;51.506;11.876;2023-09-08T01:44:58;21.00;65.30
14585;DHT22;7379;51.506;11.876;2023-09-08T01:47:27;21.00;65.30
14585;DHT22;7379;51.506;11.876;2023-09-08T01:49:54;21.00;65.30
14585;DHT22;7379;51.506;11.876;2023-09-08T01:52:21;21.00;65.40
14585;DHT22;7379;51.506;11.876;2023-09-08T01:54:47;21.00;65.40
14585;DHT22;7379;51.506;11.876;2023-09-08T01:57:15;21.00;65.40
14585;DHT22;7379;51.506;11.876;2023-09-08T01:59:42;20.90;66.10
14585;DHT22;7379;51.506;11.876;2023-09-08T02:02:10;20.90;65.40
14585;DHT22;7379;51.506;11.876;2023-09-08T02:04:37;20.90;65.40
14585;DHT22;7379;51.506;11.876;2023-09-08T02:07:04;20.90;65.50
14585;DHT22;7379;51.506;11.876;2023-09-08T02:09:31;20.90;65.50
14585;DHT22;7379;51.506;11.876;2023-09-08T02:11:58;20.80;65.50
14585;DHT22;7379;51.506;11.876;2023-09-08T02:14:26;20.80;65.50
14585;DHT22;7379;51.506;11.876;2023-09-08T02:16:54;20.80;65.60
14585;DHT22;7379;51.506;11.876;2023-09-08T02:19:20;20.80;65.60
14585;DHT22;7379;51.506;11.876;2023-09-08T02:21:47;20.80;65.70
14585;DHT22;7379;51.506;11.876;2023-09-08T02:24:14;20.80;65.70
14585;DHT22;7379;51.506;11.876;2023-09-08T02:26:41;20.80;65.70
14585;DHT22;7379;51.506;11.876;2023-09-08T02:29:08;20.80;65.80
14585;DHT22;7379;51.506;11.876;2023-09-08T02:31:36;20.70;65.80
14585;DHT22;7379;51.506;11.876;2023-09-08T02:34:03;20.70;65.80
14585;DHT22;7379;51.506;11.876;2023-09-08T02:36:30;20.70;65.80
14585;DHT22;7379;51.506;11.876;2023-09-08T02:38:57;20.70;65.80
14585;DHT22;7379;51.506;11.876;2023-09-08T02:41:23;20.70;65.90
14585;DHT22;7379;51.506;11.876;2023-09-08T02:43:50;20.70;66.70
14585;DHT22;7379;51.506;11.876;2023-09-08T02:46:17;20.60;65.80
14585;DHT22;7379;51.506;11.876;2023-09-08T02:48:45;20.60;65.80
14585;DHT22;7379;51.506;11.876;2023-09-08T02:51:12;20.60;65.90
14585;DHT22;7379;51.506;11.876;2023-09-08T02:53:39;20.60;65.90
14585;DHT22;7379;51.506;11.876;2023-09-08T02:56:05;20.60;66.00
14585;DHT22;7379;51.506;11.876;2023-09-08T02:58:32;20.60;66.00
14585;DHT22;7379;51.506;11.876;2023-09-08T03:01:09;20.60;66.00
14585;DHT22;7379;51.506;11.876;2023-09-08T03:03:37;20.50;66.00
14585;DHT22;7379;51.506;11.876;2023-09-08T03:06:05;20.50;66.00
14585;DHT22;7379;51.506;11.876;2023-09-08T03:08:32;20.50;66.00
14585;DHT22;7379;51.506;11.876;2023-09-08T03:10:59;20.50;66.10
14585;DHT22;7379;51.506;11.876;2023-09-08T03:13:26;20.50;66.10
14585;DHT22;7379;51.506;11.876;2023-09-08T03:15:54;20.40;66.00
14585;DHT22;7379;51.506;11.876;2023-09-08T03:18:21;20.40;66.10
14585;DHT22;7379;51.506;11.876;2023-09-08T03:20:48;20.40;66.10
14585;DHT22;7379;51.506;11.876;2023-09-08T03:23:17;20.40;66.10
14585;DHT22;7379;51.506;11.876;2023-09-08T03:25:43;20.40;66.10
14585;DHT22;7379;51.506;11.876;2023-09-08T03:28:12;20.40;66.20
14585;DHT22;7379;51.506;11.876;2023-09-08T03:30:38;20.40;66.20
14585;DHT22;7379;51.506;11.876;2023-09-08T03:33:05;20.40;66.30
14585;DHT22;7379;51.506;11.876;2023-09-08T03:35:32;20.40;66.30
14585;DHT22;7379;51.506;11.876;2023-09-08T03:37:58;20.30;66.20
14585;DHT22;7379;51.506;11.876;2023-09-08T03:40:27;20.30;66.20
14585;DHT22;7379;51.506;11.876;2023-09-08T03:42:53;20.30;66.20
14585;DHT22;7379;51.506;11.876;2023-09-08T03:45:20;20.30;66.30
14585;DHT22;7379;51.506;11.876;2023-09-08T03:47:47;20.20;66.20
14585;DHT22;7379;51.506;11.876;2023-09-08T03:50:13;20.20;66.20
14585;DHT22;7379;51.506;11.876;2023-09-08T03:52:40;20.20;66.30
14585;DHT22;7379;51.506;11.876;2023-09-08T03:55:07;20.20;66.30
14585;DHT22;7379;51.506;11.876;2023-09-08T03:57:35;20.20;66.30
14585;DHT22;7379;51.506;11.876;2023-09-08T04:00:02;20.20;66.40
14585;DHT22;7379;51.506;11.876;2023-09-08T04:02:32;20.20;66.40
14585;DHT22;7379;51.506;11.876;2023-09-08T04:04:58;20.10;66.30
14585;DHT22;7379;51.506;11.876;2023-09-08T04:07:25;20.10;66.30
14585;DHT22;7379;51.506;11.876;2023-09-08T04:09:52;20.10;66.40
14585;DHT22;7379;51.506;11.876;2023-09-08T04:12:19;20.10;66.40
14585;DHT22;7379;51.506;11.876;2023-09-08T04:14:47;20.10;66.40
14585;DHT22;7379;51.506;11.876;2023-09-08T04:17:14;20.10;66.40
14585;DHT22;7379;51.506;11.876;2023-09-08T04:19:41;20.10;66.50
14585;DHT22;7379;51.506;11.876;2023-09-08T04:22:07;20.00;66.40
14585;DHT22;7379;51.506;11.876;2023-09-08T04:24:35;20.00;66.40
14585;DHT22;7379;51.506;11.876;2023-09-08T04:27:02;20.00;66.40
14585;DHT22;7379;51.506;11.876;2023-09-08T04:29:29;20.00;66.40
14585;DHT22;7379;51.506;11.876;2023-09-08T04:31:57;20.00;66.50
14585;DHT22;7379;51.506;11.876;2023-09-08T04:34:25;20.00;66.50
14585;DHT22;7379;51.506;11.876;2023-09-08T04:36:51;19.90;66.40
14585;DHT22;7379;51.506;11.876;2023-09-08T04:39:18;19.90;66.50
14585;DHT22;7379;51.506;11.876;2023-09-08T04:41:45;19.90;66.50
14585;DHT22;7379;51.506;11.876;2023-09-08T04:44:11;19.90;66.50
14585;DHT22;7379;51.506;11.876;2023-09-08T04:46:38;19.90;66.50
14585;DHT22;7379;51.506;11.876;2023-09-08T04:49:06;19.90;66.50
14585;DHT22;7379;51.506;11.876;2023-09-08T04:51:33;19.80;66.50
14585;DHT22;7379;51.506;11.876;2023-09-08T04:54:00;19.80;66.50
14585;DHT22;7379;51.506;11.876;2023-09-08T04:56:26;19.80;66.60
14585;DHT22;7379;51.506;11.876;2023-09-08T04:58:53;19.80;66.70
14585;DHT22;7379;51.506;11.876;2023-09-08T05:01:20;19.80;66.70
14585;DHT22;7379;51.506;11.876;2023-09-08T05:03:47;19.80;66.70
14585;DHT22;7379;51.506;11.876;2023-09-08T05:06:15;19.80;66.70
14585;DHT22;7379;51.506;11.876;2023-09-08T05:08:42;19.70;66.70
14585;DHT22;7379;51.506;11.876;2023-09-08T05:11:09;19.80;66.80
14585;DHT22;7379;51.506;11.876;2023-09-08T05:13:36;19.70;66.70
14585;DHT22;7379;51.506;11.876;2023-09-08T05:16:03;19.70;66.80
14585;DHT22;7379;51.506;11.876;2023-09-08T05:18:36;19.70;66.80
14585;DHT22;7379;51.506;11.876;2023-09-08T05:21:03;19.70;66.80
14585;DHT22;7379;51.506;11.876;2023-09-08T05:23:31;19.60;66.80
14585;DHT22;7379;51.506;11.876;2023-09-08T05:25:59;19.60;66.80
14585;DHT22;7379;51.506;11.876;2023-09-08T05:28:26;19.60;66.80
14585;DHT22;7379;51.506;11.876;2023-09-08T05:30:53;19.60;66.90
14585;DHT22;7379;51.506;11.876;2023-09-08T05:33:19;19.60;66.90
14585;DHT22;7379;51.506;11.876;2023-09-08T05:35:46;19.60;66.90
14585;DHT22;7379;51.506;11.876;2023-09-08T05:38:13;19.60;67.00
14585;DHT22;7379;51.506;11.876;2023-09-08T05:40:42;19.60;67.00
14585;DHT22;7379;51.506;11.876;2023-09-08T05:43:08;19.60;67.00
14585;DHT22;7379;51.506;11.876;2023-09-08T05:45:35;19.60;67.00
14585;DHT22;7379;51.506;11.876;2023-09-08T05:48:03;19.50;67.00
14585;DHT22;7379;51.506;11.876;2023-09-08T05:50:30;19.50;67.10
14585;DHT22;7379;51.506;11.876;2023-09-08T05:52:57;19.50;67.10
14585;DHT22;7379;51.506;11.876;2023-09-08T05:55:23;19.50;67.20
14585;DHT22;7379;51.506;11.876;2023-09-08T05:57:51;19.50;67.20
14585;DHT22;7379;51.506;11.876;2023-09-08T06:00:18;19.50;67.30
14585;DHT22;7379;51.506;11.876;2023-09-08T06:02:45;19.50;67.30
14585;DHT22;7379;51.506;11.876;2023-09-08T06:05:12;19.50;67.30
14585;DHT22;7379;51.506;11.876;2023-09-08T06:07:39;19.50;67.40
14585;DHT22;7379;51.506;11.876;2023-09-08T06:10:06;19.50;67.40
14585;DHT22;7379;51.506;11.876;2023-09-08T06:12:33;19.40;67.30
14585;DHT22;7379;51.506;11.876;2023-09-08T06:15:01;19.40;68.10
14585;DHT22;7379;51.506;11.876;2023-09-08T06:17:28;19.40;67.40
14585;DHT22;7379;51.506;11.876;2023-09-08T06:19:55;19.40;67.50
14585;DHT22;7379;51.506;11.876;2023-09-08T06:22:22;19.40;67.50
14585;DHT22;7379;51.506;11.876;2023-09-08T06:24:49;19.40;67.60
14585;DHT22;7379;51.506;11.876;2023-09-08T06:27:15;19.40;68.40
14585;DHT22;7379;51.506;11.876;2023-09-08T06:29:42;19.40;67.60
14585;DHT22;7379;51.506;11.876;2023-09-08T06:32:10;19.40;67.70
14585;DHT22;7379;51.506;11.876;2023-09-08T06:34:37;19.40;67.70
14585;DHT22;7379;51.506;11.876;2023-09-08T06:37:04;19.40;67.80
14585;DHT22;7379;51.506;11.876;2023-09-08T06:39:31;19.40;67.80
14585;DHT22;7379;51.506;11.876;2023-09-08T06:41:58;19.30;67.80
14585;DHT22;7379;51.506;11.876;2023-09-08T06:44:24;19.30;67.80
14585;DHT22;7379;51.506;11.876;2023-09-08T06:46:51;19.30;67.90
14585;DHT22;7379;51.506;11.876;2023-09-08T06:49:19;19.30;67.90
14585;DHT22;7379;51.506;11.876;2023-09-08T06:51:46;19.30;68.00
14585;DHT22;7379;51.506;11.876;2023-09-08T06:54:14;19.30;68.00
14585;DHT22;7379;51.506;11.876;2023-09-08T06:56:41;19.30;68.00
14585;DHT22;7379;51.506;11.876;2023-09-08T06:59:08;19.30;68.00
14585;DHT22;7379;51.506;11.876;2023-09-08T07:01:35;19.30;68.10
14585;DHT22;7379;51.506;11.876;2023-09-08T07:04:01;19.30;68.10
14585;DHT22;7379;51.506;11.876;2023-09-08T07:06:30;19.30;68.20
14585;DHT22;7379;51.506;11.876;2023-09-08T07:08:56;19.30;68.20
14585;DHT22;7379;51.506;11.876;2023-09-08T07:11:23;19.30;68.20
14585;DHT22;7379;51.506;11.876;2023-09-08T07:13:50;19.30;68.20
14585;DHT22;7379;51.506;11.876;2023-09-08T07:16:16;19.30;68.20
14585;DHT22;7379;51.506;11.876;2023-09-08T07:18:43;19.30;68.30
14585;DHT22;7379;51.506;11.876;2023-09-08T07:21:10;19.30;68.30
14585;DHT22;7379;51.506;11.876;2023-09-08T07:23:38;19.30;68.30
14585;DHT22;7379;51.506;11.876;2023-09-08T07:26:05;19.30;68.30
14585;DHT22;7379;51.506;11.876;2023-09-08T07:28:32;19.30;68.30
14585;DHT22;7379;51.506;11.876;2023-09-08T07:31:03;19.30;68.30
14585;DHT22;7379;51.506;11.876;2023-09-08T07:33:30;19.30;68.30
14585;DHT22;7379;51.506;11.876;2023-09-08T07:35:57;19.30;68.40
14585;DHT22;7379;51.506;11.876;2023-09-08T07:38:24;19.30;68.40
14585;DHT22;7379;51.506;11.876;2023-09-08T07:40:52;19.30;68.40
14585;DHT22;7379;51.506;11.876;2023-09-08T07:43:19;19.30;68.40
14585;DHT22;7379;51.506;11.876;2023-09-08T07:45:45;19.30;68.40
14585;DHT22;7379;51.506;11.876;2023-09-08T07:48:12;19.30;68.40
14585;DHT22;7379;51.506;11.876;2023-09-08T07:50:39;19.30;68.50
14585;DHT22;7379;51.506;11.876;2023-09-08T07:53:06;19.30;68.60
14585;DHT22;7379;51.506;11.876;2023-09-08T07:55:32;19.30;68.60
14585;DHT22;7379;51.506;11.876;2023-09-08T07:58:01;19.30;68.80
14585;DHT22;7379;51.506;11.876;2023-09-08T08:00:28;19.30;68.90
14585;DHT22;7379;51.506;11.876;2023-09-08T08:02:57;19.30;69.00
14585;DHT22;7379;51.506;11.876;2023-09-08T08:05:23;19.30;69.00
14585;DHT22;7379;51.506;11.876;2023-09-08T08:07:50;19.30;69.00
14585;DHT22;7379;51.506;11.876;2023-09-08T08:10:18;19.30;69.00
14585;DHT22;7379;51.506;11.876;2023-09-08T08:12:45;19.30;69.00
14585;DHT22;7379;51.506;11.876;2023-09-08T08:15:13;19.30;69.10
14585;DHT22;7379;51.506;11.876;2023-09-08T08:17:40;19.40;69.20
14585;DHT22;7379;51.506;11.876;2023-09-08T08:20:08;19.40;69.20
14585;DHT22;7379;51.506;11.876;2023-09-08T08:22:35;19.40;69.20
14585;DHT22;7379;51.506;11.876;2023-09-08T08:25:02;19.40;69.30
14585;DHT22;7379;51.506;11.876;2023-09-08T08:27:29;19.40;69.20
14585;DHT22;7379;51.506;11.876;2023-09-08T08:29:57;19.40;69.20
14585;DHT22;7379;51.506;11.876;2023-09-08T08:32:26;19.40;69.20
14585;DHT22;7379;51.506;11.876;2023-09-08T08:34:53;19.50;69.30
14585;DHT22;7379;51.506;11.876;2023-09-08T08:37:19;19.50;69.30
14585;DHT22;7379;51.506;11.876;2023-09-08T08:39:46;19.50;69.40
14585;DHT22;7379;51.506;11.876;2023-09-08T08:42:13;19.50;69.20
14585;DHT22;7379;51.506;11.876;2023-09-08T08:44:40;19.60;69.30
14585;DHT22;7379;51.506;11.876;2023-09-08T08:47:08;19.60;69.20
14585;DHT22;7379;51.506;11.876;2023-09-08T08:49:38;19.60;69.20
14585;DHT22;7379;51.506;11.876;2023-09-08T08:52:08;19.60;69.20
14585;DHT22;7379;51.506;11.876;2023-09-08T08:54:38;19.60;69.20
14585;DHT22;7379;51.506;11.876;2023-09-08T08:57:05;19.60;69.20
14585;DHT22;7379;51.506;11.876;2023-09-08T08:59:33;19.60;69.30
14585;DHT22;7379;51.506;11.876;2023-09-08T09:02:00;19.70;69.30
14585;DHT22;7379;51.506;11.876;2023-09-08T09:04:29;19.70;69.40
14585;DHT22;7379;51.506;11.876;2023-09-08T09:06:58;19.70;69.60
14585;DHT22;7379;51.506;11.876;2023-09-08T09:09:25;19.70;69.60
14585;DHT22;7379;51.506;11.876;2023-09-08T09:11:52;19.70;69.60
14585;DHT22;7379;51.506;11.876;2023-09-08T09:14:18;19.70;69.80
14585;DHT22;7379;51.506;11.876;2023-09-08T09:16:46;19.70;69.90
14585;DHT22;7379;51.506;11.876;2023-09-08T09:19:18;19.70;69.90
14585;DHT22;7379;51.506;11.876;2023-09-08T09:21:51;19.70;70.00
14585;DHT22;7379;51.506;11.876;2023-09-08T09:24:31;19.70;70.00
14585;DHT22;7379;51.506;11.876;2023-09-08T09:26:59;19.70;69.90
14585;DHT22;7379;51.506;11.876;2023-09-08T09:29:26;19.70;70.00
14585;DHT22;7379;51.506;11.876;2023-09-08T09:31:54;19.70;70.00
14585;DHT22;7379;51.506;11.876;2023-09-08T09:34:22;19.70;70.00
14585;DHT22;7379;51.506;11.876;2023-09-08T09:36:49;19.70;70.10
14585;DHT22;7379;51.506;11.876;2023-09-08T09:39:19;19.70;70.00
14585;DHT22;7379;51.506;11.876;2023-09-08T09:41:49;19.70;70.00
14585;DHT22;7379;51.506;11.876;2023-09-08T09:44:16;19.80;70.10
14585;DHT22;7379;51.506;11.876;2023-09-08T09:46:43;19.80;70.10
14585;DHT22;7379;51.506;11.876;2023-09-08T09:49:11;19.80;70.10
14585;DHT22;7379;51.506;11.876;2023-09-08T09:51:40;19.80;69.80
14585;DHT22;7379;51.506;11.876;2023-09-08T09:54:08;19.80;69.80
14585;DHT22;7379;51.506;11.876;2023-09-08T09:56:37;19.80;70.10
14585;DHT22;7379;51.506;11.876;2023-09-08T09:59:07;19.90;71.40
14585;DHT22;7379;51.506;11.876;2023-09-08T10:01:35;19.90;70.60
14585;DHT22;7379;51.506;11.876;2023-09-08T10:04:02;19.90;70.10
14585;DHT22;7379;51.506;11.876;2023-09-08T10:06:31;19.90;70.70
14585;DHT22;7379;51.506;11.876;2023-09-08T10:08:59;20.00;71.10
14585;DHT22;7379;51.506;11.876;2023-09-08T10:11:28;20.00;70.40
14585;DHT22;7379;51.506;11.876;2023-09-08T10:13:58;20.10;70.70
14585;DHT22;7379;51.506;11.876;2023-09-08T10:16:27;20.00;69.60
14585;DHT22;7379;51.506;11.876;2023-09-08T10:18:58;20.10;69.20
14585;DHT22;7379;51.506;11.876;2023-09-08T10:21:26;20.10;69.70
14585;DHT22;7379;51.506;11.876;2023-09-08T10:23:59;20.10;69.30
14585;DHT22;7379;51.506;11.876;2023-09-08T10:26:27;20.20;69.30
14585;DHT22;7379;51.506;11.876;2023-09-08T10:28:56;20.20;68.90
14585;DHT22;7379;51.506;11.876;2023-09-08T10:31:24;20.20;68.30
14585;DHT22;7379;51.506;11.876;2023-09-08T10:33:54;20.20;67.90
14585;DHT22;7379;51.506;11.876;2023-09-08T10:36:21;20.20;68.40
14585;DHT22;7379;51.506;11.876;2023-09-08T10:38:48;20.30;68.30
14585;DHT22;7379;51.506;11.876;2023-09-08T10:41:27;20.30;67.80
14585;DHT22;7379;51.506;11.876;2023-09-08T10:44:01;20.30;67.50
14585;DHT22;7379;51.506;11.876;2023-09-08T10:46:31;20.30;67.30
14585;DHT22;7379;51.506;11.876;2023-09-08T10:49:04;20.30;67.30
14585;DHT22;7379;51.506;11.876;2023-09-08T10:51:33;20.30;67.50
14585;DHT22;7379;51.506;11.876;2023-09-08T10:54:00;20.40;67.30
14585;DHT22;7379;51.506;11.876;2023-09-08T10:56:29;20.40;67.10
14585;DHT22;7379;51.506;11.876;2023-09-08T10:58:59;20.40;67.10
14585;DHT22;7379;51.506;11.876;2023-09-08T11:01:28;20.40;67.00
14585;DHT22;7379;51.506;11.876;2023-09-08T11:03:56;20.50;66.30
14585;DHT22;7379;51.506;11.876;2023-09-08T11:06:24;20.50;65.70
14585;DHT22;7379;51.506;11.876;2023-09-08T11:08:55;20.50;65.60
14585;DHT22;7379;51.506;11.876;2023-09-08T11:11:23;20.60;65.60
14585;DHT22;7379;51.506;11.876;2023-09-08T11:13:50;20.60;65.10
14585;DHT22;7379;51.506;11.876;2023-09-08T11:16:17;20.60;65.70
14585;DHT22;7379;51.506;11.876;2023-09-08T11:18:51;20.70;65.50
14585;DHT22;7379;51.506;11.876;2023-09-08T11:21:17;20.70;65.30
14585;DHT22;7379;51.506;11.876;2023-09-08T11:23:45;20.70;65.30
14585;DHT22;7379;51.506;11.876;2023-09-08T11:26:12;20.70;65.70
14585;DHT22;7379;51.506;11.876;2023-09-08T11:28:40;20.70;65.10
14585;DHT22;7379;51.506;11.876;2023-09-08T11:31:07;20.80;65.80
14585;DHT22;7379;51.506;11.876;2023-09-08T11:33:35;20.80;66.10
14585;DHT22;7379;51.506;11.876;2023-09-08T11:36:11;20.80;65.50
14585;DHT22;7379;51.506;11.876;2023-09-08T11:38:39;20.90;65.40
14585;DHT22;7379;51.506;11.876;2023-09-08T11:41:08;20.90;65.20
14585;DHT22;7379;51.506;11.876;2023-09-08T11:43:36;20.90;65.20
14585;DHT22;7379;51.506;11.876;2023-09-08T11:46:03;20.90;65.00
14585;DHT22;7379;51.506;11.876;2023-09-08T11:48:31;20.90;64.80
14585;DHT22;7379;51.506;11.876;2023-09-08T11:50:58;21.00;65.00
14585;DHT22;7379;51.506;11.876;2023-09-08T11:53:25;21.00;65.90
14585;DHT22;7379;51.506;11.876;2023-09-08T11:55:52;21.00;65.10
14585;DHT22;7379;51.506;11.876;2023-09-08T11:58:20;21.00;64.90
14585;DHT22;7379;51.506;11.876;2023-09-08T12:00:47;21.00;64.70
14585;DHT22;7379;51.506;11.876;2023-09-08T12:03:15;21.00;64.90
14585;DHT22;7379;51.506;11.876;2023-09-08T12:05:42;21.10;64.90
14585;DHT22;7379;51.506;11.876;2023-09-08T12:08:10;21.10;64.80
14585;DHT22;7379;51.506;11.876;2023-09-08T12:10:40;21.10;65.00
14585;DHT22;7379;51.506;11.876;2023-09-08T12:13:07;21.10;65.00
14585;DHT22;7379;51.506;11.876;2023-09-08T12:15:37;21.10;65.00
14585;DHT22;7379;51.506;11.876;2023-09-08T12:18:06;21.20;64.80
14585;DHT22;7379;51.506;11.876;2023-09-08T12:20:34;21.20;65.00
14585;DHT22;7379;51.506;11.876;2023-09-08T12:23:02;21.30;65.00
14585;DHT22;7379;51.506;11.876;2023-09-08T12:25:29;21.30;64.30
14585;DHT22;7379;51.506;11.876;2023-09-08T12:27:58;21.30;64.30
14585;DHT22;7379;51.506;11.876;2023-09-08T12:30:25;21.40;64.30
14585;DHT22;7379;51.506;11.876;2023-09-08T12:32:57;21.40;63.90
14585;DHT22;7379;51.506;11.876;2023-09-08T12:35:25;21.50;63.50
14585;DHT22;7379;51.506;11.876;2023-09-08T12:37:57;21.50;63.60
14585;DHT22;7379;51.506;11.876;2023-09-08T12:40:25;21.60;63.30
14585;DHT22;7379;51.506;11.876;2023-09-08T12:42:52;21.60;63.00
14585;DHT22;7379;51.506;11.876;2023-09-08T12:45:20;21.60;62.50
14585;DHT22;7379;51.506;11.876;2023-09-08T12:47:47;21.70;63.00
14585;DHT22;7379;51.506;11.876;2023-09-08T12:50:15;21.70;62.00
14585;DHT22;7379;51.506;11.876;2023-09-08T12:52:42;21.80;62.20
14585;DHT22;7379;51.506;11.876;2023-09-08T12:55:09;21.80;62.20
14585;DHT22;7379;51.506;11.876;2023-09-08T12:57:36;21.80;62.30
14585;DHT22;7379;51.506;11.876;2023-09-08T13:00:04;21.90;61.90
14585;DHT22;7379;51.506;11.876;2023-09-08T13:02:31;21.90;62.10
14585;DHT22;7379;51.506;11.876;2023-09-08T13:04:58;21.90;61.90
14585;DHT22;7379;51.506;11.876;2023-09-08T13:07:27;21.90;61.90
14585;DHT22;7379;51.506;11.876;2023-09-08T13:09:54;22.00;61.90
14585;DHT22;7379;51.506;11.876;2023-09-08T13:12:21;22.00;61.70
14585;DHT22;7379;51.506;11.876;2023-09-08T13:14:47;22.10;61.90
14585;DHT22;7379;51.506;11.876;2023-09-08T13:17:14;22.10;62.50
14585;DHT22;7379;51.506;11.876;2023-09-08T13:19:41;22.10;62.30
14585;DHT22;7379;51.506;11.876;2023-09-08T13:22:08;22.20;62.10
14585;DHT22;7379;51.506;11.876;2023-09-08T13:24:36;22.20;61.80
14585;DHT22;7379;51.506;11.876;2023-09-08T13:27:03;22.20;61.60
14585;DHT22;7379;51.506;11.876;2023-09-08T13:29:30;22.30;61.50
14585;DHT22;7379;51.506;11.876;2023-09-08T13:31:57;22.30;61.50
14585;DHT22;7379;51.506;11.876;2023-09-08T13:34:24;22.30;61.00
14585;DHT22;7379;51.506;11.876;2023-09-08T13:36:51;22.40;61.30
14585;DHT22;7379;51.506;11.876;2023-09-08T13:39:17;22.40;61.00
14585;DHT22;7379;51.506;11.876;2023-09-08T13:41:50;22.40;60.70
14585;DHT22;7379;51.506;11.876;2023-09-08T13:44:17;22.50;60.50
14585;DHT22;7379;51.506;11.876;2023-09-08T13:46:45;22.50;60.30
14585;DHT22;7379;51.506;11.876;2023-09-08T13:49:12;22.60;59.90
14585;DHT22;7379;51.506;11.876;2023-09-08T13:51:39;22.60;59.60
14585;DHT22;7379;51.506;11.876;2023-09-08T13:54:06;22.60;59.80
14585;DHT22;7379;51.506;11.876;2023-09-08T13:56:33;22.60;59.40
14585;DHT22;7379;51.506;11.876;2023-09-08T13:59:01;22.70;59.80
14585;DHT22;7379;51.506;11.876;2023-09-08T14:01:28;22.80;59.50
14585;DHT22;7379;51.506;11.876;2023-09-08T14:03:55;22.90;59.40
14585;DHT22;7379;51.506;11.876;2023-09-08T14:06:22;22.90;58.80
14585;DHT22;7379;51.506;11.876;2023-09-08T14:08:50;22.90;58.80
14585;DHT22;7379;51.506;11.876;2023-09-08T14:11:16;23.00;58.50
14585;DHT22;7379;51.506;11.876;2023-09-08T14:13:43;23.00;58.60
14585;DHT22;7379;51.506;11.876;2023-09-08T14:16:12;23.10;58.70
14585;DHT22;7379;51.506;11.876;2023-09-08T14:18:39;23.20;58.50
14585;DHT22;7379;51.506;11.876;2023-09-08T14:21:06;23.20;58.40
14585;DHT22;7379;51.506;11.876;2023-09-08T14:23:33;23.20;58.00
14585;DHT22;7379;51.506;11.876;2023-09-08T14:26:00;23.30;58.70
14585;DHT22;7379;51.506;11.876;2023-09-08T14:28:27;23.30;57.80
14585;DHT22;7379;51.506;11.876;2023-09-08T14:30:53;23.40;58.10
14585;DHT22;7379;51.506;11.876;2023-09-08T14:33:22;23.40;58.00
14585;DHT22;7379;51.506;11.876;2023-09-08T14:35:49;23.50;57.70
14585;DHT22;7379;51.506;11.876;2023-09-08T14:38:17;23.60;57.70
14585;DHT22;7379;51.506;11.876;2023-09-08T14:40:44;23.60;57.50
14585;DHT22;7379;51.506;11.876;2023-09-08T14:43:11;23.60;57.30
14585;DHT22;7379;51.506;11.876;2023-09-08T14:45:37;23.70;57.20
14585;DHT22;7379;51.506;11.876;2023-09-08T14:48:05;23.70;57.10
14585;DHT22;7379;51.506;11.876;2023-09-08T14:50:33;23.80;57.00
14585;DHT22;7379;51.506;11.876;2023-09-08T14:53:00;23.90;56.70
14585;DHT22;7379;51.506;11.876;2023-09-08T14:55:28;23.90;56.70
14585;DHT22;7379;51.506;11.876;2023-09-08T14:57:54;24.00;56.50
14585;DHT22;7379;51.506;11.876;2023-09-08T15:00:21;24.10;56.90
14585;DHT22;7379;51.506;11.876;2023-09-08T15:02:48;24.10;56.80
14585;DHT22;7379;51.506;11.876;2023-09-08T15:05:15;24.20;56.60
14585;DHT22;7379;51.506;11.876;2023-09-08T15:07:43;24.20;56.30
14585;DHT22;7379;51.506;11.876;2023-09-08T15:10:11;24.30;56.40
14585;DHT22;7379;51.506;11.876;2023-09-08T15:12:37;24.40;56.10
14585;DHT22;7379;51.506;11.876;2023-09-08T15:15:05;24.40;55.50
14585;DHT22;7379;51.506;11.876;2023-09-08T15:17:32;24.40;55.60
14585;DHT22;7379;51.506;11.876;2023-09-08T15:19:59;24.50;55.40
14585;DHT22;7379;51.506;11.876;2023-09-08T15:22:26;24.60;55.50
14585;DHT22;7379;51.506;11.876;2023-09-08T15:24:54;24.60;55.80
14585;DHT22;7379;51.506;11.876;2023-09-08T15:27:21;24.70;55.40
14585;DHT22;7379;51.506;11.876;2023-09-08T15:29:48;24.80;55.40
14585;DHT22;7379;51.506;11.876;2023-09-08T15:32:14;25.00;55.90
14585;DHT22;7379;51.506;11.876;2023-09-08T15:34:41;25.00;55.30